logo
Search for airport 
image banner adimage banner adimage banner ad
image banner ad

SHCD - Clinica Alemana Santiago

Located in Vitacura, Chile

ICAO - , IATA -

Data provided by Airmate  

General information

Coordinates: S33°23'31" W70°34'22"
Elevation is 2323 feet MSL.
 
View others Airports in Santiago Metropolitan Region

Operational data

Special qualification required
Current time UTC:
Current local time:
Weather at : SCTB - Eulogio Sanchez - Tobalaba ( 8 km )
METAR: SCTB 221100Z 00000KT 8000 SCT010 OVC093 10/07 Q1016
View NOTAMs / SUP AIP / TFR affecting this airport [VIEW]
Communications frequencies: [VIEW]

Runways:

Airport contact information

Address: Vitacura Chile

Satellite view of SHCD